• Join FlightAware (Why Join?)
  • Login
  • US Flag 
07:46PM EDT


 

Airport Tracker/Info


-or-


 

Live Flight TrackerFlight Track Log ✈ EMD26 ✈ 14-Oct-2013 ✈ KCPS - KPOF

Flight Track Log - Related Links

Times and Time Zones

All times are in EDT time to prevent confusion due to time zone crossing. See the EMD26 flight status page for this flight to view local times or setup timezone preferences in your user account.

Time Position Orientation Groundspeed Altitude Reporting Facility
EDT Latitude Longitude Course Direction KTS MPH feet Rate Location/Type
01:08AM 38.5500 -90.1333 159° South 147 169 1,100  Level Gateway (St. Louis) TRACON
01:09AM 38.5167 -90.1167 159° South 166 191 2,600 1,380 Climbing Gateway (St. Louis) TRACON
01:10AM 38.4903 -90.1222 189° South 171 197 3,700 1,380 Climbing Kansas City Center
01:11AM 38.4414 -90.1219 180° South 157 181 5,300 1,260 Climbing Kansas City Center
01:12AM 38.4064 -90.1233 182° South 155 178 6,300 1,260 Climbing Kansas City Center
01:13AM 38.3622 -90.1344 191° South 154 177 7,900 1,440 Climbing Kansas City Center
01:14AM 38.3228 -90.1408 187° South 146 168 9,200 1,020 Climbing Kansas City Center
01:15AM 38.2808 -90.1411 180° South 148 170 10,000 420 Climbing Kansas City Center
01:16AM 38.2297 -90.1497 188° South 175 201 10,100  Climbing Kansas City Center
01:17AM 38.1708 -90.1603 188° South 204 235 10,100 -60 Level Kansas City Center
01:18AM 38.1114 -90.1642 183° South 212 244 10,000 -60 Descending Kansas City Center
01:19AM 38.0517 -90.1689 184° South 214 246 10,000  Level Kansas City Center
01:20AM 37.9925 -90.1794 188° South 215 247 10,000  Level Kansas City Center
01:21AM 37.9325 -90.1856 185° South 216 249 10,000  Level Kansas City Center
01:22AM 37.8722 -90.1911 184° South 217 250 10,000  Level Kansas City Center
01:23AM 37.8122 -90.2019 188° South 218 251 10,000  Level Kansas City Center
01:24AM 37.7525 -90.2092 185° South 218 251 10,000  Level Kansas City Center
01:25AM 37.6911 -90.2156 185° South 219 252 10,000  Level Kansas City Center
01:26AM 37.6297 -90.2222 185° South 220 253 10,000  Level Kansas City Center
01:27AM 37.5689 -90.2317 187° South 221 254 10,000  Level Kansas City Center
01:28AM 37.5078 -90.2367 184° South 221 254 10,000 -240 Level Kansas City Center
01:29AM 37.4456 -90.2425 184° South 222 255 9,600 -720 Descending Kansas City Center
01:30AM 37.3786 -90.2519 186° South 231 266 8,600 -900 Descending Kansas City Center
01:31AM 37.3106 -90.2636 188° South 237 273 7,800 -840 Descending Kansas City Center
01:32AM 37.2450 -90.2708 185° South 238 274 7,000 -960 Descending Kansas City Center
01:33AM 37.1664 -90.2794 185° South 237 273 5,900 -1,140 Descending Kansas City Center